createdAt,value
2018-09-10T00:00:32.869Z,73
2018-09-10T00:01:35.316Z,73
2018-09-10T00:02:37.580Z,73
2018-09-10T00:03:39.733Z,73
2018-09-10T00:04:42.298Z,73
2018-09-10T00:05:44.545Z,73
2018-09-10T00:06:46.993Z,73
2018-09-10T00:07:50.025Z,73
2018-09-10T00:08:53.113Z,73
2018-09-10T00:09:55.293Z,72
2018-09-10T00:10:57.822Z,72
2018-09-10T00:12:00.478Z,72
2018-09-10T00:13:02.757Z,73
2018-09-10T00:14:04.992Z,73
2018-09-10T00:15:07.124Z,73
2018-09-10T00:16:09.282Z,73
2018-09-10T00:17:11.602Z,73
2018-09-10T00:18:13.793Z,73
2018-09-10T00:19:15.991Z,73
2018-09-10T00:20:18.162Z,73
2018-09-10T00:21:20.396Z,73
2018-09-10T00:22:22.862Z,73
2018-09-10T00:23:24.970Z,74
2018-09-10T00:24:27.057Z,74
2018-09-10T00:25:29.495Z,74
2018-09-10T00:26:31.631Z,74
2018-09-10T00:27:33.819Z,74
2018-09-10T00:28:36.062Z,73
2018-09-10T00:29:38.333Z,73
2018-09-10T00:30:40.518Z,73
2018-09-10T00:31:42.692Z,73
2018-09-10T00:32:45.214Z,73
2018-09-10T00:33:47.341Z,73
2018-09-10T00:34:49.528Z,73
2018-09-10T00:35:52.377Z,74
2018-09-10T00:36:54.850Z,73
2018-09-10T00:37:57.388Z,73
2018-09-10T00:38:59.822Z,73
2018-09-10T00:40:02.335Z,73
2018-09-10T00:41:04.497Z,73
2018-09-10T00:42:06.954Z,73
2018-09-10T00:43:09.132Z,73
2018-09-10T00:44:11.348Z,73
2018-09-10T00:45:13.520Z,73
2018-09-10T00:46:15.738Z,73
2018-09-10T00:47:17.928Z,73
2018-09-10T00:48:20.407Z,73
2018-09-10T00:49:22.859Z,73
2018-09-10T00:50:25.001Z,73
2018-09-10T00:51:27.184Z,73
2018-09-10T00:52:29.613Z,72
2018-09-10T00:53:31.883Z,72
2018-09-10T00:54:33.998Z,72
2018-09-10T00:55:36.466Z,72
2018-09-10T00:56:38.568Z,72
2018-09-10T00:57:40.696Z,72
2018-09-10T00:58:42.935Z,72
2018-09-10T00:59:45.069Z,73
2018-09-10T01:00:47.161Z,72
2018-09-10T01:01:49.735Z,73
2018-09-10T01:02:52.530Z,73
2018-09-10T01:03:54.766Z,73
2018-09-10T01:04:57.283Z,73
2018-09-10T01:05:59.460Z,73
2018-09-10T01:07:01.671Z,73
2018-09-10T01:08:03.808Z,73
2018-09-10T01:09:05.915Z,74
2018-09-10T01:10:08.101Z,74
2018-09-10T01:11:10.237Z,74
2018-09-10T01:12:12.387Z,74
2018-09-10T01:13:14.557Z,74
2018-09-10T01:14:16.757Z,74
2018-09-10T01:15:19.370Z,74
2018-09-10T01:16:22.075Z,74
2018-09-10T01:17:24.711Z,74
2018-09-10T01:18:27.445Z,74
2018-09-10T01:19:29.588Z,74
2018-09-10T01:20:32.250Z,74
2018-09-10T01:21:34.716Z,74
2018-09-10T01:22:36.940Z,74
2018-09-10T01:23:39.437Z,74
2018-09-10T01:24:42.046Z,74
2018-09-10T01:25:44.894Z,74
2018-09-10T01:26:47.401Z,74
2018-09-10T01:27:49.497Z,74
2018-09-10T01:28:52.167Z,74
2018-09-10T01:29:54.891Z,74
2018-09-10T01:30:57.130Z,74
2018-09-10T01:31:59.807Z,75
2018-09-10T01:33:02.318Z,75
2018-09-10T01:34:04.938Z,75
2018-09-10T01:35:07.560Z,75
2018-09-10T01:36:10.319Z,75
2018-09-10T01:37:12.442Z,75
2018-09-10T01:38:14.486Z,75
2018-09-10T01:39:16.728Z,75
2018-09-10T01:40:18.900Z,75
2018-09-10T01:41:21.038Z,74
2018-09-10T01:42:23.181Z,75
2018-09-10T01:43:25.343Z,75
2018-09-10T01:44:27.443Z,75
2018-09-10T01:45:29.570Z,75
2018-09-10T01:46:31.647Z,75
2018-09-10T01:47:34.189Z,75
2018-09-10T01:48:36.240Z,75
2018-09-10T01:49:38.277Z,75
2018-09-10T01:50:40.325Z,75
2018-09-10T01:51:42.663Z,75
2018-09-10T01:52:45.085Z,75
2018-09-10T01:53:47.421Z,75
2018-09-10T01:54:49.465Z,75
2018-09-10T01:55:51.499Z,75
2018-09-10T01:56:53.550Z,75
2018-09-10T01:57:55.594Z,74
2018-09-10T01:58:57.641Z,74
2018-09-10T01:59:59.690Z,74
2018-09-10T02:01:01.732Z,74
2018-09-10T02:02:03.772Z,74
2018-09-10T02:03:05.807Z,73
2018-09-10T02:04:07.860Z,73
2018-09-10T02:05:09.899Z,73
2018-09-10T02:06:12.226Z,73
2018-09-10T02:07:14.269Z,73
2018-09-10T02:08:16.303Z,73
2018-09-10T02:09:18.357Z,73
2018-09-10T02:10:20.785Z,73
2018-09-10T02:11:22.833Z,73
2018-09-10T02:12:24.870Z,73
2018-09-10T02:13:27.200Z,73
2018-09-10T02:14:29.247Z,73
2018-09-10T02:15:31.301Z,72
2018-09-10T02:16:33.333Z,72
2018-09-10T02:17:35.777Z,72
2018-09-10T02:18:37.813Z,72
2018-09-10T02:19:40.516Z,72
2018-09-10T02:20:42.548Z,72
2018-09-10T02:21:44.601Z,72
2018-09-10T02:22:47.033Z,72
2018-09-10T02:23:49.076Z,72
2018-09-10T02:24:51.128Z,72
2018-09-10T02:25:53.159Z,72
2018-09-10T02:26:55.209Z,72
2018-09-10T02:27:57.254Z,72
2018-09-10T02:28:59.293Z,72
2018-09-10T02:30:01.914Z,72
2018-09-10T02:31:04.636Z,71
2018-09-10T02:32:06.975Z,71
2018-09-10T02:33:09.031Z,71
2018-09-10T02:34:11.361Z,71
2018-09-10T02:35:13.688Z,71
2018-09-10T02:36:15.723Z,71
2018-09-10T02:37:17.775Z,71
2018-09-10T02:38:19.811Z,71
2018-09-10T02:39:22.144Z,72
2018-09-10T02:40:24.191Z,72
2018-09-10T02:41:26.226Z,72
2018-09-10T02:42:28.583Z,72
2018-09-10T02:43:30.623Z,72
2018-09-10T02:44:32.674Z,72
2018-09-10T02:45:34.704Z,72
2018-09-10T02:46:37.065Z,72
2018-09-10T02:47:39.103Z,73
2018-09-10T02:48:41.142Z,73
2018-09-10T02:49:43.190Z,73
2018-09-10T02:50:45.222Z,73
2018-09-10T02:51:47.577Z,73
2018-09-10T02:52:50.327Z,73
2018-09-10T02:53:52.378Z,73
2018-09-10T02:54:54.412Z,73
2018-09-10T02:55:56.459Z,73
2018-09-10T02:56:58.819Z,73
2018-09-10T02:58:01.141Z,73
2018-09-10T02:59:03.197Z,74
2018-09-10T03:00:05.233Z,74
2018-09-10T03:01:07.947Z,74
2018-09-10T03:02:10.296Z,74
2018-09-10T03:03:13.047Z,74
2018-09-10T03:04:15.375Z,74
2018-09-10T03:05:17.415Z,75
2018-09-10T03:06:19.450Z,75
2018-09-10T03:07:21.499Z,75
2018-09-10T03:08:23.982Z,74
2018-09-10T03:09:26.421Z,74
2018-09-10T03:10:28.841Z,75
2018-09-10T03:11:31.288Z,75
2018-09-10T03:12:33.610Z,75
2018-09-10T03:13:35.659Z,75
2018-09-10T03:14:37.707Z,75
2018-09-10T03:15:39.736Z,75
2018-09-10T03:16:41.784Z,75
2018-09-10T03:17:43.892Z,75
2018-09-10T03:18:46.168Z,75
2018-09-10T03:19:48.202Z,75
2018-09-10T03:20:50.252Z,75
2018-09-10T03:21:52.587Z,75
2018-09-10T03:22:54.625Z,75
2018-09-10T03:23:56.786Z,76
2018-09-10T03:24:59.052Z,76
2018-09-10T03:26:01.095Z,76
2018-09-10T03:27:03.128Z,76
2018-09-10T03:28:05.190Z,76
2018-09-10T03:29:07.224Z,76
2018-09-10T03:30:09.268Z,76
2018-09-10T03:31:11.598Z,76
2018-09-10T03:32:14.654Z,76
2018-09-10T03:33:16.703Z,76
2018-09-10T03:34:19.028Z,77
2018-09-10T03:35:21.081Z,77
2018-09-10T03:36:23.120Z,77
2018-09-10T03:37:25.158Z,77
2018-09-10T03:38:27.202Z,77
2018-09-10T03:39:29.243Z,77
2018-09-10T03:40:31.288Z,77
2018-09-10T03:41:33.722Z,77
2018-09-10T03:42:35.771Z,77
2018-09-10T03:43:37.803Z,77
2018-09-10T03:44:39.859Z,77
2018-09-10T03:45:42.178Z,77
2018-09-10T03:46:44.216Z,77
2018-09-10T03:47:46.269Z,77
2018-09-10T03:48:48.593Z,77
2018-09-10T03:49:50.647Z,77
2018-09-10T03:50:52.685Z,77
2018-09-10T03:51:55.124Z,77
2018-09-10T03:52:57.537Z,77
2018-09-10T03:53:59.587Z,77
2018-09-10T03:55:01.637Z,77
2018-09-10T03:56:03.965Z,77
2018-09-10T03:57:06.297Z,78
2018-09-10T03:58:08.335Z,77
2018-09-10T03:59:10.421Z,77
2018-09-10T04:00:12.760Z,77
2018-09-10T04:01:14.814Z,77
2018-09-10T04:02:17.740Z,77
2018-09-10T04:03:20.069Z,77
2018-09-10T04:04:22.401Z,77
2018-09-10T04:05:24.725Z,77
2018-09-10T04:06:27.066Z,77
2018-09-10T04:07:29.104Z,77
2018-09-10T04:08:31.157Z,77
2018-09-10T04:09:33.196Z,77
2018-09-10T04:10:35.228Z,77
2018-09-10T04:11:37.569Z,76
2018-09-10T04:12:39.604Z,76
2018-09-10T04:13:41.648Z,76
2018-09-10T04:14:43.695Z,76
2018-09-10T04:15:45.747Z,76
2018-09-10T04:16:47.778Z,76
2018-09-10T04:17:49.833Z,76
2018-09-10T04:18:51.873Z,76
2018-09-10T04:19:53.916Z,76
2018-09-10T04:20:56.355Z,76
2018-09-10T04:21:58.385Z,76
2018-09-10T04:23:00.446Z,76
2018-09-10T04:24:02.770Z,76
2018-09-10T04:25:05.392Z,76
2018-09-10T04:26:08.588Z,76
2018-09-10T04:27:10.543Z,75
2018-09-10T04:28:12.589Z,76
2018-09-10T04:29:14.905Z,76
2018-09-10T04:30:16.958Z,76
2018-09-10T04:31:18.994Z,76
2018-09-10T04:32:21.031Z,75
2018-09-10T04:33:23.274Z,75
2018-09-10T04:34:25.711Z,75
2018-09-10T04:35:28.053Z,75
2018-09-10T04:36:30.766Z,75
2018-09-10T04:37:32.815Z,75
2018-09-10T04:38:34.852Z,75
2018-09-10T04:39:36.907Z,75
2018-09-10T04:40:38.956Z,75
2018-09-10T04:41:40.992Z,75
2018-09-10T04:42:43.040Z,75
2018-09-10T04:43:45.392Z,75
2018-09-10T04:44:48.107Z,75
2018-09-10T04:45:50.149Z,75
2018-09-10T04:46:52.200Z,75
2018-09-10T04:47:54.250Z,74
2018-09-10T04:48:56.296Z,75
2018-09-10T04:49:58.329Z,75
2018-09-10T04:51:00.384Z,75
2018-09-10T04:52:02.422Z,75
2018-09-10T04:53:04.752Z,75
2018-09-10T04:54:06.800Z,75
2018-09-10T04:55:09.120Z,75
2018-09-10T04:56:11.171Z,75
2018-09-10T04:57:13.206Z,75
2018-09-10T04:58:15.392Z,75
2018-09-10T04:59:17.300Z,75
2018-09-10T05:00:20.717Z,75
2018-09-10T05:01:24.509Z,75
2018-09-10T05:02:27.905Z,75
2018-09-10T05:03:31.761Z,75
2018-09-10T05:04:35.292Z,75
2018-09-10T05:05:39.358Z,75
2018-09-10T05:06:42.893Z,74
2018-09-10T05:07:46.471Z,74
2018-09-10T05:08:50.868Z,74
2018-09-10T05:09:55.417Z,74
2018-09-10T05:10:59.168Z,74
2018-09-10T05:12:04.334Z,74
2018-09-10T05:13:08.140Z,74
2018-09-10T05:14:11.729Z,74
2018-09-10T05:15:15.352Z,74
2018-09-10T05:16:19.046Z,74
2018-09-10T05:17:22.964Z,74
2018-09-10T05:18:26.773Z,74
2018-09-10T05:19:30.722Z,74
2018-09-10T05:20:34.656Z,74
2018-09-10T05:21:38.712Z,74
2018-09-10T05:22:42.961Z,74
2018-09-10T05:23:47.536Z,74
2018-09-10T05:24:52.315Z,74
2018-09-10T05:25:57.196Z,74
2018-09-10T05:27:02.439Z,74
2018-09-10T05:28:07.113Z,74
2018-09-10T05:29:12.012Z,74
2018-09-10T05:30:16.320Z,74
2018-09-10T05:31:20.865Z,74
2018-09-10T05:32:24.867Z,74
2018-09-10T05:33:29.176Z,73
2018-09-10T05:34:32.952Z,73
2018-09-10T05:35:36.791Z,73
2018-09-10T05:36:40.749Z,73
2018-09-10T05:37:44.680Z,73
2018-09-10T05:38:50.095Z,73
2018-09-10T05:39:55.204Z,73
2018-09-10T05:40:59.743Z,73
2018-09-10T05:42:04.387Z,73
2018-09-10T05:43:08.499Z,73
2018-09-10T05:44:11.819Z,73
2018-09-10T05:45:14.138Z,73
2018-09-10T05:46:17.322Z,72
2018-09-10T05:47:20.903Z,72
2018-09-10T05:48:23.786Z,73
2018-09-10T05:49:27.490Z,73
2018-09-10T05:50:30.587Z,72
2018-09-10T05:51:33.413Z,73
2018-09-10T05:52:36.393Z,73
2018-09-10T05:53:39.767Z,72
2018-09-10T05:54:42.948Z,72
2018-09-10T05:55:45.549Z,72
2018-09-10T05:56:49.202Z,72
2018-09-10T05:57:52.723Z,72
2018-09-10T05:58:56.495Z,72
2018-09-10T06:00:00.427Z,72
2018-09-10T06:01:03.484Z,72
2018-09-10T06:02:06.772Z,72
2018-09-10T06:03:10.301Z,72
2018-09-10T06:04:12.682Z,72
2018-09-10T06:05:16.084Z,72
2018-09-10T06:06:20.039Z,72
2018-09-10T06:07:23.307Z,72
2018-09-10T06:08:25.783Z,72
2018-09-10T06:09:28.537Z,72
2018-09-10T06:10:31.659Z,72
2018-09-10T06:11:34.812Z,72
2018-09-10T06:12:38.774Z,72
2018-09-10T06:13:41.775Z,72
2018-09-10T06:14:44.073Z,72
2018-09-10T06:15:47.544Z,71
2018-09-10T06:16:50.923Z,72
2018-09-10T06:17:53.330Z,71
2018-09-10T06:18:57.009Z,71
2018-09-10T06:20:00.380Z,71
2018-09-10T06:21:03.376Z,71
2018-09-10T06:22:06.315Z,71
2018-09-10T06:23:09.166Z,71
2018-09-10T06:24:12.272Z,71
2018-09-10T06:25:16.090Z,70
2018-09-10T06:26:20.214Z,71
2018-09-10T06:27:22.663Z,71
2018-09-10T06:28:25.651Z,71
2018-09-10T06:29:29.580Z,71
2018-09-10T06:30:33.272Z,71
2018-09-10T06:31:36.833Z,71
2018-09-10T06:32:40.280Z,71
2018-09-10T06:33:44.134Z,71
2018-09-10T06:34:47.359Z,71
2018-09-10T06:35:50.702Z,71
2018-09-10T06:36:53.884Z,71
2018-09-10T06:37:57.375Z,71
2018-09-10T06:39:01.639Z,72
2018-09-10T06:40:06.660Z,72
2018-09-10T06:41:11.408Z,72
2018-09-10T06:42:16.483Z,72
2018-09-10T06:43:21.513Z,72
2018-09-10T06:44:25.458Z,72
2018-09-10T06:45:29.157Z,72
2018-09-10T06:46:32.692Z,71
2018-09-10T06:47:37.090Z,72
2018-09-10T06:48:40.397Z,71
2018-09-10T06:49:43.941Z,71
2018-09-10T06:50:47.466Z,71
2018-09-10T06:51:51.069Z,71
2018-09-10T06:52:54.901Z,72
2018-09-10T06:53:58.584Z,71
2018-09-10T06:55:02.364Z,70
2018-09-10T06:56:06.302Z,70
2018-09-10T06:57:10.582Z,70
2018-09-10T06:58:14.758Z,69
2018-09-10T06:59:18.661Z,69
2018-09-10T07:00:22.349Z,68
2018-09-10T07:01:25.818Z,68
2018-09-10T07:02:30.221Z,68
2018-09-10T07:03:34.064Z,68
2018-09-10T07:04:37.848Z,68
2018-09-10T07:05:41.788Z,67
2018-09-10T07:06:45.206Z,66
2018-09-10T07:07:49.280Z,66
2018-09-10T07:08:53.521Z,65
2018-09-10T07:09:57.269Z,65
2018-09-10T07:11:01.331Z,65
2018-09-10T07:12:05.254Z,64
2018-09-10T07:13:09.089Z,65
2018-09-10T07:14:12.720Z,64
2018-09-10T07:15:16.348Z,64
2018-09-10T07:16:20.830Z,64
2018-09-10T07:17:24.581Z,64
2018-09-10T07:18:28.732Z,64
2018-09-10T07:19:32.709Z,64
2018-09-10T07:20:36.638Z,64
2018-09-10T07:21:40.690Z,65
2018-09-10T07:22:44.883Z,64
2018-09-10T07:23:49.158Z,64
2018-09-10T07:24:53.541Z,67
2018-09-10T07:25:58.952Z,67
2018-09-10T07:27:03.754Z,66
2018-09-10T07:28:08.661Z,69
2018-09-10T07:29:14.097Z,67
2018-09-10T07:30:19.056Z,66
2018-09-10T07:31:22.672Z,67
2018-09-10T07:32:26.356Z,65
2018-09-10T07:33:30.213Z,64
2018-09-10T07:34:34.835Z,64
2018-09-10T07:35:38.403Z,64
2018-09-10T07:36:41.941Z,64
2018-09-10T07:37:45.553Z,64
2018-09-10T07:38:48.899Z,64
2018-09-10T07:39:52.529Z,65
2018-09-10T07:40:56.068Z,65
2018-09-10T07:41:59.073Z,65
2018-09-10T07:43:01.954Z,64
2018-09-10T07:44:04.680Z,63
2018-09-10T07:45:07.359Z,64
2018-09-10T07:46:09.762Z,63
2018-09-10T07:47:13.255Z,64
2018-09-10T07:48:16.143Z,63
2018-09-10T07:49:19.364Z,63
2018-09-10T07:50:23.616Z,62
2018-09-10T07:51:26.782Z,62
2018-09-10T07:52:31.128Z,62
2018-09-10T07:53:34.696Z,62
2018-09-10T07:54:38.332Z,62
2018-09-10T07:55:41.683Z,62
2018-09-10T07:56:45.300Z,62
2018-09-10T07:57:48.728Z,61
2018-09-10T07:58:51.472Z,62
2018-09-10T07:59:55.222Z,60
2018-09-10T08:00:58.837Z,60
2018-09-10T08:02:02.633Z,61
2018-09-10T08:03:05.352Z,60
2018-09-10T08:04:08.255Z,61
2018-09-10T08:05:11.494Z,61
2018-09-10T08:06:14.741Z,61
2018-09-10T08:07:18.703Z,60
2018-09-10T08:08:21.123Z,60
2018-09-10T08:09:24.901Z,60
2018-09-10T08:10:28.490Z,60
2018-09-10T08:11:31.884Z,61
2018-09-10T08:12:35.319Z,60
2018-09-10T08:13:38.932Z,61
2018-09-10T08:14:41.885Z,60
2018-09-10T08:15:45.211Z,62
2018-09-10T08:16:49.122Z,65
2018-09-10T08:17:53.376Z,63
2018-09-10T08:18:57.005Z,64
2018-09-10T08:20:00.646Z,61
2018-09-10T08:21:04.068Z,62
2018-09-10T08:22:07.814Z,63
2018-09-10T08:23:11.510Z,60
2018-09-10T08:24:14.990Z,63
2018-09-10T08:25:18.657Z,61
2018-09-10T08:26:21.860Z,61
2018-09-10T08:27:25.694Z,61
2018-09-10T08:28:28.777Z,60
2018-09-10T08:29:31.212Z,60
2018-09-10T08:30:34.215Z,60
2018-09-10T08:31:37.417Z,60
2018-09-10T08:32:40.916Z,60
2018-09-10T08:33:44.241Z,59
2018-09-10T08:34:47.061Z,60
2018-09-10T08:35:49.469Z,60
2018-09-10T08:36:52.259Z,60
2018-09-10T08:37:54.732Z,59
2018-09-10T08:38:57.101Z,60
2018-09-10T08:40:00.260Z,60
2018-09-10T08:41:03.788Z,60
2018-09-10T08:42:06.913Z,60
2018-09-10T08:43:10.372Z,60
2018-09-10T08:44:14.178Z,61
2018-09-10T08:45:18.272Z,60
2018-09-10T08:46:22.311Z,60
2018-09-10T08:47:26.607Z,60
2018-09-10T08:48:30.179Z,59
2018-09-10T08:49:33.482Z,60
2018-09-10T08:50:36.585Z,60
2018-09-10T08:51:38.906Z,60
2018-09-10T08:52:42.349Z,60
2018-09-10T08:53:45.399Z,60
2018-09-10T08:54:48.761Z,59
2018-09-10T08:55:52.656Z,59
2018-09-10T08:56:57.109Z,59
2018-09-10T08:58:00.366Z,59
2018-09-10T08:59:03.937Z,59
2018-09-10T09:00:08.069Z,59
2018-09-10T09:01:12.196Z,60
2018-09-10T09:02:15.433Z,59
2018-09-10T09:03:19.272Z,60
2018-09-10T09:04:23.073Z,60
2018-09-10T09:05:25.694Z,59
2018-09-10T09:06:29.330Z,60
2018-09-10T09:07:31.679Z,60
2018-09-10T09:08:33.955Z,60
2018-09-10T09:09:37.412Z,60
2018-09-10T09:10:41.125Z,59
2018-09-10T09:11:44.584Z,61
2018-09-10T09:12:48.100Z,60
2018-09-10T09:13:51.417Z,60
2018-09-10T09:14:54.481Z,60
2018-09-10T09:15:58.137Z,60
2018-09-10T09:17:01.409Z,61
2018-09-10T09:18:04.839Z,61
2018-09-10T09:19:07.356Z,60
2018-09-10T09:20:35.127Z,61
2018-09-10T09:21:37.189Z,60
2018-09-10T09:22:39.222Z,59
2018-09-10T09:23:41.388Z,60
2018-09-10T09:24:43.420Z,60
2018-09-10T09:25:45.812Z,61
2018-09-10T09:26:48.694Z,62
2018-09-10T09:27:50.726Z,60
2018-09-10T09:28:52.838Z,61
2018-09-10T09:29:54.877Z,61
2018-09-10T09:30:57.367Z,60
2018-09-10T09:31:59.785Z,59
2018-09-10T09:33:01.829Z,61
2018-09-10T09:34:03.884Z,60
2018-09-10T09:35:05.915Z,60
2018-09-10T09:36:08.476Z,60
2018-09-10T09:37:10.478Z,61
2018-09-10T09:38:12.558Z,60
2018-09-10T09:39:14.578Z,61
2018-09-10T09:40:16.619Z,60
2018-09-10T09:41:19.357Z,61
2018-09-10T09:42:21.393Z,61
2018-09-10T09:43:23.549Z,61
2018-09-10T09:44:25.510Z,62
2018-09-10T09:45:27.837Z,61
2018-09-10T09:46:30.178Z,61
2018-09-10T09:47:32.210Z,61
2018-09-10T09:48:34.271Z,60
2018-09-10T09:49:36.313Z,60
2018-09-10T09:50:38.633Z,61
2018-09-10T09:51:40.680Z,60
2018-09-10T09:52:43.507Z,60
2018-09-10T09:53:45.553Z,60
2018-09-10T09:54:47.595Z,60
2018-09-10T09:55:50.018Z,60
2018-09-10T09:56:52.062Z,61
2018-09-10T09:57:54.130Z,61
2018-09-10T09:58:57.036Z,60
2018-09-10T09:59:59.093Z,62
2018-09-10T10:01:01.130Z,62
2018-09-10T10:02:03.176Z,63
2018-09-10T10:03:05.199Z,61
2018-09-10T10:04:07.358Z,60
2018-09-10T10:05:09.688Z,61
2018-09-10T10:06:11.718Z,60
2018-09-10T10:07:13.764Z,60
2018-09-10T10:08:16.082Z,60
2018-09-10T10:09:18.131Z,60
2018-09-10T10:10:20.725Z,60
2018-09-10T10:11:23.736Z,59
2018-09-10T10:12:25.753Z,60
2018-09-10T10:13:28.784Z,59
2018-09-10T10:14:31.393Z,59
2018-09-10T10:15:33.426Z,59
2018-09-10T10:16:35.886Z,59
2018-09-10T10:17:37.924Z,59
2018-09-10T10:18:39.953Z,60
2018-09-10T10:19:41.998Z,59
2018-09-10T10:20:44.032Z,60
2018-09-10T10:21:46.063Z,60
2018-09-10T10:22:48.100Z,60
2018-09-10T10:23:50.133Z,60
2018-09-10T10:24:52.227Z,60
2018-09-10T10:25:54.231Z,60
2018-09-10T10:26:56.270Z,61
2018-09-10T10:27:58.303Z,61
2018-09-10T10:29:00.355Z,61
2018-09-10T10:30:02.676Z,61
2018-09-10T10:31:05.108Z,61
2018-09-10T10:32:07.149Z,60
2018-09-10T10:33:09.178Z,60
2018-09-10T10:34:11.227Z,60
2018-09-10T10:35:13.256Z,60
2018-09-10T10:36:15.303Z,60
2018-09-10T10:37:17.330Z,61
2018-09-10T10:38:19.375Z,60
2018-09-10T10:39:21.452Z,60
2018-09-10T10:40:23.459Z,60
2018-09-10T10:41:25.797Z,60
2018-09-10T10:42:27.824Z,60
2018-09-10T10:43:30.148Z,60
2018-09-10T10:44:32.181Z,60
2018-09-10T10:45:34.541Z,60
2018-09-10T10:46:36.865Z,60
2018-09-10T10:47:38.905Z,59
2018-09-10T10:48:40.972Z,60
2018-09-10T10:49:42.993Z,59
2018-09-10T10:50:45.429Z,59
2018-09-10T10:51:47.861Z,59
2018-09-10T10:52:49.886Z,59
2018-09-10T10:53:51.969Z,58
2018-09-10T10:54:54.330Z,58
2018-09-10T10:55:56.376Z,59
2018-09-10T10:56:58.802Z,59
2018-09-10T10:58:01.134Z,58
2018-09-10T10:59:03.165Z,59
2018-09-10T11:00:05.200Z,59
2018-09-10T11:01:07.251Z,59
2018-09-10T11:02:09.280Z,59
2018-09-10T11:03:11.334Z,59
2018-09-10T11:04:13.393Z,58
2018-09-10T11:05:15.407Z,58
2018-09-10T11:06:17.741Z,58
2018-09-10T11:07:19.781Z,58
2018-09-10T11:08:21.824Z,57
2018-09-10T11:09:23.853Z,59
2018-09-10T11:10:25.904Z,57
2018-09-10T11:11:28.613Z,56
2018-09-10T11:12:30.658Z,56
2018-09-10T11:13:32.690Z,55
2018-09-10T11:14:34.738Z,56
2018-09-10T11:15:37.083Z,55
2018-09-10T11:16:39.163Z,57
2018-09-10T11:17:41.149Z,55
2018-09-10T11:18:43.201Z,55
2018-09-10T11:19:45.233Z,55
2018-09-10T11:20:47.277Z,56
2018-09-10T11:21:49.323Z,58
2018-09-10T11:22:51.357Z,56
2018-09-10T11:23:53.405Z,55
2018-09-10T11:24:55.459Z,55
2018-09-10T11:25:57.773Z,54
2018-09-10T11:26:59.815Z,53
2018-09-10T11:28:02.158Z,55
2018-09-10T11:29:04.196Z,54
2018-09-10T11:30:06.244Z,54
2018-09-10T11:31:08.668Z,54
2018-09-10T11:32:10.997Z,54
2018-09-10T11:33:13.032Z,54
2018-09-10T11:34:15.082Z,55
2018-09-10T11:35:17.114Z,55
2018-09-10T11:36:19.555Z,56
2018-09-10T11:37:21.889Z,58
2018-09-10T11:38:23.926Z,55
2018-09-10T11:39:25.979Z,55
2018-09-10T11:40:28.014Z,54
2018-09-10T11:41:30.061Z,54
2018-09-10T11:42:32.383Z,53
2018-09-10T11:43:34.434Z,55
2018-09-10T11:44:36.762Z,54
2018-09-10T11:45:39.087Z,53
2018-09-10T11:46:41.174Z,53
2018-09-10T11:47:43.885Z,53
2018-09-10T11:48:45.924Z,56
2018-09-10T11:49:48.248Z,53
2018-09-10T11:50:50.586Z,52
2018-09-10T11:51:52.639Z,55
2018-09-10T11:52:54.679Z,53
2018-09-10T11:53:56.728Z,51
2018-09-10T11:54:58.774Z,52
2018-09-10T11:56:00.811Z,51
2018-09-10T11:57:03.161Z,51
2018-09-10T11:58:05.506Z,50
2018-09-10T11:59:07.541Z,50
2018-09-10T12:00:09.590Z,51
2018-09-10T12:01:11.923Z,51
2018-09-10T12:02:14.078Z,52
2018-09-10T12:03:16.412Z,52
2018-09-10T12:04:18.450Z,51
2018-09-10T12:05:20.492Z,51
2018-09-10T12:06:22.534Z,52
2018-09-10T12:07:24.588Z,51
2018-09-10T12:08:27.443Z,50
2018-09-10T12:09:29.476Z,50
2018-09-10T12:10:31.524Z,50
2018-09-10T12:11:34.232Z,49
2018-09-10T12:12:36.285Z,49
2018-09-10T12:13:38.381Z,49
2018-09-10T12:14:40.379Z,50
2018-09-10T12:15:42.414Z,49
2018-09-10T12:16:44.479Z,50
2018-09-10T12:17:46.511Z,53
2018-09-10T12:18:48.938Z,54
2018-09-10T12:19:50.989Z,52
2018-09-10T12:20:53.026Z,51
2018-09-10T12:21:55.391Z,51
2018-09-10T12:22:57.458Z,51
2018-09-10T12:23:59.496Z,51
2018-09-10T12:25:01.545Z,53
2018-09-10T12:26:03.585Z,51
2018-09-10T12:27:05.632Z,51
2018-09-10T12:28:07.686Z,52
2018-09-10T12:29:09.740Z,51
2018-09-10T12:30:11.793Z,52
2018-09-10T12:31:14.154Z,51
2018-09-10T12:32:16.649Z,51
2018-09-10T12:33:18.972Z,51
2018-09-10T12:34:21.029Z,51
2018-09-10T12:35:23.073Z,50
2018-09-10T12:36:25.414Z,50
2018-09-10T12:37:27.742Z,49
2018-09-10T12:38:29.784Z,50
2018-09-10T12:39:32.236Z,51
2018-09-10T12:40:34.179Z,51
2018-09-10T12:41:36.225Z,51
2018-09-10T12:42:38.277Z,52
2018-09-10T12:43:40.324Z,50
2018-09-10T12:44:42.363Z,51
2018-09-10T12:45:44.415Z,50
2018-09-10T12:46:46.475Z,50
2018-09-10T12:47:48.527Z,50
2018-09-10T12:48:51.229Z,51
2018-09-10T12:49:53.292Z,50
2018-09-10T12:50:55.718Z,51
2018-09-10T12:51:57.760Z,52
2018-09-10T12:52:59.815Z,53
2018-09-10T12:54:02.132Z,53
2018-09-10T12:55:04.185Z,52
2018-09-10T12:56:06.243Z,52
2018-09-10T12:57:08.295Z,53
2018-09-10T12:58:10.330Z,54
2018-09-10T12:59:12.665Z,52
2018-09-10T13:00:14.706Z,55
2018-09-10T13:01:17.132Z,52
2018-09-10T13:02:19.193Z,53
2018-09-10T13:03:21.240Z,54
2018-09-10T13:04:23.675Z,52
2018-09-10T13:05:25.725Z,54
2018-09-10T13:06:27.768Z,52
2018-09-10T13:07:30.193Z,53
2018-09-10T13:08:32.240Z,54
2018-09-10T13:09:34.278Z,52
2018-09-10T13:10:36.373Z,54
2018-09-10T13:11:39.013Z,55
2018-09-10T13:12:41.063Z,55
2018-09-10T13:13:43.098Z,54
2018-09-10T13:14:45.156Z,54
2018-09-10T13:15:47.203Z,52
2018-09-10T13:16:49.253Z,54
2018-09-10T13:17:51.302Z,53
2018-09-10T13:18:53.343Z,52
2018-09-10T13:19:55.393Z,52
2018-09-10T13:20:57.434Z,54
2018-09-10T13:21:59.785Z,54
2018-09-10T13:23:01.817Z,54
2018-09-10T13:24:03.865Z,52
2018-09-10T13:25:05.915Z,50
2018-09-10T13:26:07.953Z,51
2018-09-10T13:27:10.020Z,50
2018-09-10T13:28:12.055Z,51
2018-09-10T13:29:14.095Z,50
2018-09-10T13:30:16.136Z,50
2018-09-10T13:31:18.487Z,50
2018-09-10T13:32:20.527Z,51
2018-09-10T13:33:22.580Z,51
2018-09-10T13:34:24.632Z,50
2018-09-10T13:35:26.748Z,51
2018-09-10T13:36:29.107Z,50
2018-09-10T13:37:31.769Z,48
2018-09-10T13:38:33.965Z,49
2018-09-10T13:39:36.018Z,50
2018-09-10T13:40:38.080Z,50
2018-09-10T13:41:40.424Z,49
2018-09-10T13:42:42.469Z,49
2018-09-10T13:43:44.558Z,49
2018-09-10T13:44:46.614Z,50
2018-09-10T13:45:48.686Z,48
2018-09-10T13:46:51.145Z,50
2018-09-10T13:47:53.419Z,47
2018-09-10T13:48:55.604Z,47
2018-09-10T13:49:58.480Z,49
2018-09-10T13:51:00.559Z,49
2018-09-10T13:52:03.009Z,49
2018-09-10T13:53:05.122Z,48
2018-09-10T13:54:07.291Z,50
2018-09-10T13:55:09.414Z,50
2018-09-10T13:56:11.723Z,49
2018-09-10T13:57:14.363Z,50
2018-09-10T13:58:16.701Z,50
2018-09-10T13:59:18.741Z,50
2018-09-10T14:00:20.802Z,50
2018-09-10T14:01:22.965Z,51
2018-09-10T14:02:25.270Z,50
2018-09-10T14:03:27.321Z,51
2018-09-10T14:04:29.376Z,51
2018-09-10T14:05:31.419Z,52
2018-09-10T14:06:33.466Z,52
2018-09-10T14:07:35.517Z,50
2018-09-10T14:08:37.553Z,50
2018-09-10T14:09:39.605Z,50
2018-09-10T14:10:41.696Z,51
2018-09-10T14:11:43.696Z,50
2018-09-10T14:12:45.747Z,51
2018-09-10T14:13:47.799Z,51
2018-09-10T14:14:49.846Z,51
2018-09-10T14:15:51.898Z,51
2018-09-10T14:16:53.939Z,51
2018-09-10T14:17:55.978Z,52
2018-09-10T14:18:58.019Z,52
2018-09-10T14:20:00.342Z,51
2018-09-10T14:21:02.391Z,52
2018-09-10T14:22:04.434Z,53
2018-09-10T14:23:06.479Z,52
2018-09-10T14:24:08.532Z,51
2018-09-10T14:25:10.567Z,51
2018-09-10T14:26:12.624Z,52
2018-09-10T14:27:15.057Z,50
2018-09-10T14:28:17.390Z,52
2018-09-10T14:29:19.811Z,51
2018-09-10T14:30:22.163Z,51
2018-09-10T14:31:24.214Z,53
2018-09-10T14:32:26.572Z,51
2018-09-10T14:33:28.626Z,53
2018-09-10T14:34:30.738Z,52
2018-09-10T14:35:32.709Z,54
2018-09-10T14:36:34.746Z,50
2018-09-10T14:37:36.806Z,50
2018-09-10T14:38:38.847Z,50
2018-09-10T14:39:41.197Z,51
2018-09-10T14:40:43.250Z,51
2018-09-10T14:41:45.281Z,50
2018-09-10T14:42:47.792Z,50
2018-09-10T14:43:50.165Z,51
2018-09-10T14:44:52.198Z,51
2018-09-10T14:45:54.256Z,52
2018-09-10T14:46:56.303Z,49
2018-09-10T14:47:58.394Z,50
2018-09-10T14:49:00.444Z,51
2018-09-10T14:50:02.486Z,51
2018-09-10T14:51:04.533Z,51
2018-09-10T14:52:06.567Z,51
2018-09-10T14:53:08.630Z,52